createdAt,value
2022-08-24T00:02:17.829Z,100790.91
2022-08-24T00:05:10.509Z,100793.34
2022-08-24T00:11:26.290Z,100788.72
2022-08-24T00:13:46.238Z,100777.47
2022-08-24T00:16:43.011Z,100788.31
2022-08-24T00:19:15.445Z,100789.03
2022-08-24T00:22:24.531Z,100792.25
2022-08-24T00:25:11.515Z,100783.13
2022-08-24T00:27:39.557Z,100794.25
2022-08-24T00:30:09.503Z,100791.16
2022-08-24T00:32:37.947Z,100788.78
2022-08-24T00:35:06.285Z,100797.47
2022-08-24T00:37:34.123Z,100798.91
2022-08-24T00:40:03.501Z,100795.94
2022-08-24T00:42:31.116Z,100792.25
2022-08-24T00:44:58.614Z,100794.22
2022-08-24T00:47:29.856Z,100799.81
2022-08-24T00:50:00.955Z,100796.81
2022-08-24T00:52:32.197Z,100800.00
2022-08-24T00:55:03.421Z,100798.13
2022-08-24T00:57:34.998Z,100791.56
2022-08-24T01:00:11.169Z,100805.25
2022-08-24T01:02:41.972Z,100794.03
2022-08-24T01:05:11.237Z,100794.59
2022-08-24T01:07:40.139Z,100802.84
2022-08-24T01:10:11.862Z,100797.84
2022-08-24T01:12:41.007Z,100800.28
2022-08-24T01:15:16.453Z,100795.91
2022-08-24T01:18:02.214Z,100797.94
2022-08-24T01:20:29.836Z,100809.00
2022-08-24T01:23:03.512Z,100809.00
2022-08-24T01:25:34.259Z,100804.47
2022-08-24T01:28:06.667Z,100802.19
2022-08-24T01:30:36.118Z,100806.88
2022-08-24T01:33:06.996Z,100806.00
2022-08-24T01:35:36.580Z,100799.44
2022-08-24T01:38:08.287Z,100803.44
2022-08-24T01:40:38.945Z,100812.16
2022-08-24T01:43:07.752Z,100812.88
2022-08-24T01:45:35.502Z,100816.38
2022-08-24T01:48:03.645Z,100814.13
2022-08-24T01:50:32.074Z,100811.75
2022-08-24T01:53:05.255Z,100808.31
2022-08-24T01:55:33.854Z,100816.41
2022-08-24T01:58:02.974Z,100819.09
2022-08-24T02:00:30.693Z,100823.41
2022-08-24T02:02:58.377Z,100822.59
2022-08-24T02:05:26.443Z,100821.94
2022-08-24T02:07:53.996Z,100823.22
2022-08-24T02:10:23.439Z,100822.63
2022-08-24T02:12:57.849Z,100821.56
2022-08-24T02:15:29.471Z,100823.53
2022-08-24T02:17:57.073Z,100820.69
2022-08-24T02:20:24.811Z,100816.50
2022-08-24T02:22:53.421Z,100827.91
2022-08-24T02:25:21.657Z,100823.28
2022-08-24T02:27:49.309Z,100823.31
2022-08-24T02:30:17.494Z,100825.78
2022-08-24T02:32:47.135Z,100822.06
2022-08-24T02:35:14.665Z,100821.53
2022-08-24T02:37:43.636Z,100819.31
2022-08-24T02:40:12.418Z,100822.41
2022-08-24T02:42:51.426Z,100817.75
2022-08-24T02:45:19.413Z,100828.25
2022-08-24T02:47:48.818Z,100823.56
2022-08-24T02:50:17.701Z,100822.78
2022-08-24T02:52:45.248Z,100831.78
2022-08-24T02:55:15.309Z,100833.16
2022-08-24T02:57:47.977Z,100830.78
2022-08-24T03:00:21.295Z,100832.03
2022-08-24T03:02:50.192Z,100839.03
2022-08-24T03:05:18.077Z,100833.63
2022-08-24T03:07:45.586Z,100830.97
2022-08-24T03:10:13.399Z,100832.78
2022-08-24T03:12:41.525Z,100837.00
2022-08-24T03:15:12.184Z,100836.09
2022-08-24T03:17:41.122Z,100833.91
2022-08-24T03:20:14.446Z,100834.88
2022-08-24T03:22:42.690Z,100830.97
2022-08-24T03:25:11.266Z,100840.56
2022-08-24T03:27:39.110Z,100832.44
2022-08-24T03:30:12.736Z,100832.84
2022-08-24T03:32:40.598Z,100832.78
2022-08-24T03:35:09.151Z,100831.09
2022-08-24T03:37:38.378Z,100834.25
2022-08-24T03:40:06.642Z,100827.50
2022-08-24T03:42:40.815Z,100835.78
2022-08-24T03:45:10.088Z,100824.97
2022-08-24T03:47:40.272Z,100827.56
2022-08-24T03:50:12.962Z,100828.28
2022-08-24T03:52:42.146Z,100825.66
2022-08-24T03:55:10.867Z,100818.31
2022-08-24T03:57:38.702Z,100828.97
2022-08-24T04:00:09.525Z,100822.84
2022-08-24T04:02:37.302Z,100832.13
2022-08-24T04:05:05.534Z,100830.25
2022-08-24T04:07:33.002Z,100831.59
2022-08-24T04:10:01.978Z,100836.34
2022-08-24T04:12:29.574Z,100828.97
2022-08-24T04:14:57.062Z,100828.97
2022-08-24T04:17:24.669Z,100840.38
2022-08-24T04:20:01.000Z,100835.84
2022-08-24T04:22:31.768Z,100830.94
2022-08-24T04:24:59.357Z,100837.16
2022-08-24T04:27:28.317Z,100836.25
2022-08-24T04:29:55.826Z,100842.16
2022-08-24T04:32:23.359Z,100837.81
2022-08-24T04:34:51.172Z,100843.13
2022-08-24T04:37:18.657Z,100841.50
2022-08-24T04:39:54.682Z,100843.47
2022-08-24T04:42:22.212Z,100848.34
2022-08-24T04:44:51.967Z,100848.69
2022-08-24T04:47:19.457Z,100847.38
2022-08-24T04:49:46.952Z,100855.84
2022-08-24T04:52:14.735Z,100848.53
2022-08-24T04:54:42.274Z,100847.97
2022-08-24T04:57:10.981Z,100852.41
2022-08-24T04:59:41.069Z,100851.91
2022-08-24T05:02:09.924Z,100849.94
2022-08-24T05:04:38.220Z,100857.81
2022-08-24T05:07:06.268Z,100862.66
2022-08-24T05:09:34.072Z,100861.56
2022-08-24T05:12:02.732Z,100875.34
2022-08-24T05:14:30.196Z,100867.72
2022-08-24T05:16:57.710Z,100878.13
2022-08-24T05:19:26.561Z,100873.28
2022-08-24T05:21:54.157Z,100872.16
2022-08-24T05:24:21.882Z,100871.44
2022-08-24T05:26:49.828Z,100871.78
2022-08-24T05:29:18.930Z,100873.31
2022-08-24T05:31:47.169Z,100867.38
2022-08-24T05:34:15.120Z,100874.41
2022-08-24T05:36:44.267Z,100870.63
2022-08-24T05:39:13.387Z,100872.28
2022-08-24T05:41:44.234Z,100872.78
2022-08-24T05:44:12.597Z,100873.25
2022-08-24T05:46:40.183Z,100880.09
2022-08-24T05:49:08.293Z,100892.06
2022-08-24T05:51:36.483Z,100887.09
2022-08-24T05:54:06.324Z,100885.22
2022-08-24T05:56:33.852Z,100888.28
2022-08-24T05:59:01.500Z,100885.88
2022-08-24T06:01:29.764Z,100895.63
2022-08-24T06:03:57.866Z,100893.75
2022-08-24T06:06:26.593Z,100888.91
2022-08-24T06:08:56.019Z,100884.28
2022-08-24T06:11:29.837Z,100896.84
2022-08-24T06:14:00.624Z,100896.63
2022-08-24T06:16:28.205Z,100894.41
2022-08-24T06:18:55.800Z,100896.06
2022-08-24T06:21:28.210Z,100882.81
2022-08-24T06:23:56.697Z,100887.25
2022-08-24T06:26:44.150Z,100888.34
2022-08-24T06:29:16.699Z,100888.56
2022-08-24T06:31:46.179Z,100887.09
2022-08-24T06:34:17.350Z,100897.44
2022-08-24T06:36:45.012Z,100894.34
2022-08-24T06:39:14.100Z,100900.31
2022-08-24T06:41:44.006Z,100895.53
2022-08-24T06:44:11.550Z,100895.63
2022-08-24T06:46:39.289Z,100899.88
2022-08-24T06:49:07.947Z,100893.94
2022-08-24T06:51:35.520Z,100892.16
2022-08-24T06:54:02.999Z,100890.06
2022-08-24T06:56:30.482Z,100896.53
2022-08-24T06:59:00.804Z,100897.75
2022-08-24T07:01:28.650Z,100897.38
2022-08-24T07:03:57.133Z,100899.38
2022-08-24T07:06:25.364Z,100899.72
2022-08-24T07:08:53.254Z,100889.00
2022-08-24T07:11:21.910Z,100901.31
2022-08-24T07:13:50.411Z,100897.22
2022-08-24T07:16:39.712Z,100897.03
2022-08-24T07:19:07.650Z,100901.47
2022-08-24T07:21:35.238Z,100900.63
2022-08-24T07:24:03.283Z,100904.72
2022-08-24T07:26:31.948Z,100904.03
2022-08-24T07:29:05.162Z,100905.41
2022-08-24T07:31:35.603Z,100916.63
2022-08-24T07:34:03.678Z,100914.22
2022-08-24T07:36:31.702Z,100918.13
2022-08-24T07:38:59.959Z,100912.69
2022-08-24T07:42:02.522Z,100909.38
2022-08-24T07:44:16.368Z,100912.50
2022-08-24T07:46:45.504Z,100918.88
2022-08-24T07:49:31.468Z,100911.88
2022-08-24T07:52:00.593Z,100908.94
2022-08-24T07:54:28.748Z,100917.97
2022-08-24T07:56:56.458Z,100915.78
2022-08-24T07:59:24.043Z,100914.75
2022-08-24T08:01:52.948Z,100916.38
2022-08-24T08:04:24.984Z,100922.44
2022-08-24T08:06:52.782Z,100915.91
2022-08-24T08:09:20.695Z,100925.78
2022-08-24T08:11:49.254Z,100920.63
2022-08-24T08:14:16.820Z,100922.09
2022-08-24T08:16:44.416Z,100929.19
2022-08-24T08:19:13.289Z,100933.59
2022-08-24T08:22:02.146Z,100933.59
2022-08-24T08:24:29.756Z,100930.97
2022-08-24T08:26:59.263Z,100932.13
2022-08-24T08:29:27.291Z,100935.91
2022-08-24T08:31:55.825Z,100927.19
2022-08-24T08:34:24.681Z,100926.41
2022-08-24T08:36:52.505Z,100927.53
2022-08-24T08:39:22.255Z,100929.47
2022-08-24T08:42:10.772Z,100927.31
2022-08-24T08:45:07.345Z,100925.69
2022-08-24T08:50:47.575Z,100930.13
2022-08-24T08:53:40.069Z,100925.50
2022-08-24T08:56:12.216Z,100932.88
2022-08-24T08:58:57.502Z,100930.16
2022-08-24T09:01:32.801Z,100928.25
2022-08-24T09:04:26.421Z,100924.19
2022-08-24T09:07:19.041Z,100929.38
2022-08-24T09:10:10.605Z,100926.09
2022-08-24T09:12:45.870Z,100926.34
2022-08-24T09:15:34.676Z,100921.47
2022-08-24T09:18:12.940Z,100924.19
2022-08-24T09:20:56.434Z,100920.94
2022-08-24T09:23:30.429Z,100912.19
2022-08-24T09:26:03.589Z,100911.06
2022-08-24T09:28:43.840Z,100914.59
2022-08-24T09:31:24.911Z,100912.69
2022-08-24T09:34:08.473Z,100908.56
2022-08-24T09:36:54.860Z,100910.72
2022-08-24T09:39:37.905Z,100912.63
2022-08-24T09:42:39.409Z,100906.88
2022-08-24T09:45:27.286Z,100914.41
2022-08-24T09:48:21.790Z,100910.84
2022-08-24T09:51:26.738Z,100906.97
2022-08-24T09:54:24.684Z,100906.34
2022-08-24T09:57:12.622Z,100904.63
2022-08-24T09:59:56.357Z,100908.09
2022-08-24T10:02:37.609Z,100906.66
2022-08-24T10:05:12.255Z,100898.66
2022-08-24T10:07:48.055Z,100896.69
2022-08-24T10:10:25.799Z,100899.69
2022-08-24T10:13:04.033Z,100890.84
2022-08-24T10:15:35.609Z,100885.34
2022-08-24T10:18:16.917Z,100894.19
2022-08-24T10:20:53.452Z,100887.00
2022-08-24T10:23:41.681Z,100884.97
2022-08-24T10:26:15.825Z,100886.38
2022-08-24T10:28:59.291Z,100882.69
2022-08-24T10:31:32.075Z,100880.66
2022-08-24T10:34:06.690Z,100881.16
2022-08-24T10:36:59.424Z,100878.13
2022-08-24T10:39:52.967Z,100880.50
2022-08-24T10:42:58.961Z,100875.63
2022-08-24T10:46:05.328Z,100872.16
2022-08-24T10:48:48.620Z,100876.34
2022-08-24T10:51:27.089Z,100875.88
2022-08-24T10:53:56.789Z,100875.16
2022-08-24T10:56:31.506Z,100874.31
2022-08-24T10:59:16.240Z,100876.06
2022-08-24T11:02:00.890Z,100872.09
2022-08-24T11:04:33.100Z,100880.16
2022-08-24T11:07:11.069Z,100881.03
2022-08-24T11:09:49.294Z,100866.44
2022-08-24T11:12:26.237Z,100880.69
2022-08-24T11:14:54.979Z,100882.28
2022-08-24T11:17:24.589Z,100878.06
2022-08-24T11:19:53.679Z,100866.13
2022-08-24T11:22:34.193Z,100863.88
2022-08-24T11:25:05.893Z,100869.59
2022-08-24T11:27:36.802Z,100864.53
2022-08-24T11:30:10.076Z,100857.13
2022-08-24T11:32:45.469Z,100855.41
2022-08-24T11:35:21.220Z,100853.47
2022-08-24T11:37:51.449Z,100850.34
2022-08-24T11:40:20.840Z,100847.78
2022-08-24T11:43:01.225Z,100849.72
2022-08-24T11:45:35.704Z,100845.56
2022-08-24T11:48:12.437Z,100841.31
2022-08-24T11:50:45.957Z,100842.84
2022-08-24T11:53:21.848Z,100850.25
2022-08-24T11:55:57.556Z,100832.91
2022-08-24T11:58:38.893Z,100827.19
2022-08-24T12:01:09.684Z,100834.94
2022-08-24T12:04:00.124Z,100829.72
2022-08-24T12:06:37.848Z,100817.94
2022-08-24T12:09:12.616Z,100829.50
2022-08-24T12:11:44.285Z,100822.59
2022-08-24T12:14:18.086Z,100828.47
2022-08-24T12:16:51.570Z,100816.97
2022-08-24T12:19:22.071Z,100813.31
2022-08-24T12:21:54.517Z,100811.97
2022-08-24T12:24:26.424Z,100804.66
2022-08-24T12:26:58.060Z,100805.59
2022-08-24T12:29:30.364Z,100806.34
2022-08-24T12:31:59.658Z,100815.06
2022-08-24T12:34:32.409Z,100808.13
2022-08-24T12:37:04.975Z,100803.91
2022-08-24T12:39:46.262Z,100807.06
2022-08-24T12:42:18.253Z,100799.88
2022-08-24T12:44:50.295Z,100803.81
2022-08-24T12:47:29.259Z,100804.94
2022-08-24T12:50:03.745Z,100800.78
2022-08-24T12:52:49.298Z,100802.56
2022-08-24T12:55:26.389Z,100802.44
2022-08-24T12:58:01.725Z,100795.72
2022-08-24T13:00:33.781Z,100789.47
2022-08-24T13:03:03.754Z,100787.16
2022-08-24T13:05:41.477Z,100789.69
2022-08-24T13:08:16.466Z,100788.78
2022-08-24T13:10:46.691Z,100781.84
2022-08-24T13:13:22.309Z,100777.41
2022-08-24T13:16:03.706Z,100773.25
2022-08-24T13:19:07.258Z,100770.19
2022-08-24T13:21:41.389Z,100771.69
2022-08-24T13:24:50.169Z,100771.47
2022-08-24T13:27:50.720Z,100765.78
2022-08-24T13:30:50.958Z,100769.81
2022-08-24T13:33:20.578Z,100760.44
2022-08-24T13:36:00.337Z,100759.41
2022-08-24T13:38:53.834Z,100749.91
2022-08-24T13:41:33.551Z,100752.56
2022-08-24T13:44:08.323Z,100745.72
2022-08-24T13:46:47.513Z,100750.06
2022-08-24T13:50:02.913Z,100752.06
2022-08-24T13:53:13.163Z,100745.34
2022-08-24T13:57:06.986Z,100736.59
2022-08-24T13:59:44.919Z,100744.94
2022-08-24T14:02:35.440Z,100741.84
2022-08-24T14:06:33.850Z,100747.28
2022-08-24T14:09:44.388Z,100741.13
2022-08-24T14:13:37.051Z,100742.13
2022-08-24T14:17:19.689Z,100731.78
2022-08-24T14:20:22.051Z,100730.38
2022-08-24T14:23:36.112Z,100728.41
2022-08-24T14:27:02.205Z,100725.16
2022-08-24T14:30:30.496Z,100722.25
2022-08-24T14:33:45.561Z,100714.34
2022-08-24T14:37:54.649Z,100716.47
2022-08-24T14:40:12.969Z,100716.16
2022-08-24T14:46:24.603Z,100708.88
2022-08-24T14:49:28.458Z,100712.59
2022-08-24T14:52:58.372Z,100709.28
2022-08-24T14:56:54.521Z,100699.63
2022-08-24T15:00:37.547Z,100703.53
2022-08-24T15:03:39.223Z,100701.06
2022-08-24T15:09:56.690Z,100695.41
2022-08-24T15:14:09.547Z,100686.31
2022-08-24T15:16:43.300Z,100682.63
2022-08-24T15:23:13.721Z,100675.28
2022-08-24T15:26:01.572Z,100679.84
2022-08-24T15:38:50.055Z,100669.28
2022-08-24T15:44:55.410Z,100676.44
2022-08-24T15:47:56.552Z,100679.69
2022-08-24T15:51:22.581Z,100671.91
2022-08-24T15:53:50.130Z,100669.13
2022-08-24T15:57:22.889Z,100669.78
2022-08-24T16:00:50.139Z,100666.19
2022-08-24T16:03:50.405Z,100673.16
2022-08-24T16:06:24.386Z,100661.34
2022-08-24T16:09:20.252Z,100676.25
2022-08-24T16:11:51.098Z,100664.75
2022-08-24T16:14:27.606Z,100672.84
2022-08-24T16:16:57.447Z,100667.81
2022-08-24T16:19:27.166Z,100668.00
2022-08-24T16:21:59.013Z,100666.53
2022-08-24T16:24:32.845Z,100665.53
2022-08-24T16:27:07.226Z,100668.78
2022-08-24T16:29:55.550Z,100677.56
2022-08-24T16:32:29.947Z,100669.94
2022-08-24T16:35:19.907Z,100662.66
2022-08-24T16:37:47.505Z,100661.97
2022-08-24T16:40:15.888Z,100670.09
2022-08-24T16:42:43.511Z,100667.34
2022-08-24T16:45:14.849Z,100671.59
2022-08-24T16:47:43.802Z,100674.50
2022-08-24T16:50:11.359Z,100671.25
2022-08-24T16:52:38.859Z,100675.78
2022-08-24T16:55:07.441Z,100676.94
2022-08-24T16:57:36.347Z,100673.03
2022-08-24T17:00:07.122Z,100674.94
2022-08-24T17:02:34.689Z,100673.34
2022-08-24T17:05:04.167Z,100667.31
2022-08-24T17:07:33.096Z,100668.94
2022-08-24T17:10:02.373Z,100662.63
2022-08-24T17:12:31.147Z,100666.34
2022-08-24T17:14:58.916Z,100667.00
2022-08-24T17:17:26.593Z,100663.44
2022-08-24T17:19:55.017Z,100667.66
2022-08-24T17:22:24.520Z,100666.34
2022-08-24T17:24:52.677Z,100671.38
2022-08-24T17:27:22.492Z,100669.06
2022-08-24T17:29:50.018Z,100669.56
2022-08-24T17:32:17.532Z,100673.44
2022-08-24T17:34:45.014Z,100677.75
2022-08-24T17:37:12.933Z,100669.00
2022-08-24T17:39:41.762Z,100675.09
2022-08-24T17:42:27.994Z,100683.50
2022-08-24T17:44:56.879Z,100686.09
2022-08-24T17:47:24.410Z,100685.44
2022-08-24T17:49:51.885Z,100683.31
2022-08-24T17:52:19.390Z,100680.22
2022-08-24T17:54:48.216Z,100683.09
2022-08-24T17:57:15.982Z,100687.47
2022-08-24T17:59:43.987Z,100692.41
2022-08-24T18:02:12.917Z,100693.47
2022-08-24T18:04:41.023Z,100696.56
2022-08-24T18:07:11.746Z,100689.19
2022-08-24T18:09:42.350Z,100695.00
2022-08-24T18:12:11.266Z,100696.47
2022-08-24T18:14:52.438Z,100687.34
2022-08-24T18:17:28.336Z,100690.53
2022-08-24T18:20:16.606Z,100691.69
2022-08-24T18:25:48.995Z,100700.28
2022-08-24T18:28:23.930Z,100702.44
2022-08-24T18:31:04.026Z,100706.78
2022-08-24T18:33:40.467Z,100709.09
2022-08-24T18:36:16.368Z,100713.00
2022-08-24T18:38:48.787Z,100718.91
2022-08-24T18:41:17.667Z,100712.41
2022-08-24T18:58:27.306Z,100730.28
2022-08-24T19:07:53.240Z,100745.13
2022-08-24T19:11:25.940Z,100747.91
2022-08-24T19:32:55.452Z,100754.06
2022-08-24T19:40:47.955Z,100737.44
2022-08-24T19:51:59.205Z,100746.44
2022-08-24T19:55:03.028Z,100755.03
2022-08-24T20:01:15.128Z,100753.81
2022-08-24T20:15:40.303Z,100753.47
2022-08-24T21:16:16.877Z,100773.78
2022-08-24T21:19:27.688Z,100764.78
2022-08-24T21:22:20.589Z,100775.66
2022-08-24T21:25:38.440Z,100775.13
2022-08-24T21:28:35.645Z,100765.91
2022-08-24T21:38:12.824Z,100783.00
